Time;durP1;ratioP1;P1;durP2;ratioP2;P2;SDS_P1;SDS_P2;PMS_P1;PMS_P2;Temp;Humidity;BMP_temperature;BMP_pressure;BME280_temperature;BME280_humidity;BME280_pressure;Samples;Min_cycle;Max_cycle;Signal;HPM_P1;HPM_P2
2021/06/23 00:01:11;;;;;;;3.20;3.10;;;17.80;99.90;;;;;;5033628;28;20446;-92
2021/06/23 00:03:38;;;;;;;3.50;3.20;;;17.80;99.90;;;;;;5033999;28;20814;-92
2021/06/23 00:06:05;;;;;;;3.67;3.47;;;17.70;99.90;;;;;;5033626;28;20427;-91
2021/06/23 00:08:32;;;;;;;4.70;3.23;;;17.70;99.90;;;;;;5033709;28;20431;-92
2021/06/23 00:11:00;;;;;;;3.50;3.30;;;17.60;99.90;;;;;;5033481;28;20461;-91
2021/06/23 00:13:31;;;;;;;3.63;3.33;;;17.60;99.90;;;;;;5033983;28;20485;-92
2021/06/23 00:15:58;;;;;;;3.73;3.43;;;17.60;99.90;;;;;;5033817;28;20441;-91
2021/06/23 00:18:25;;;;;;;3.57;3.27;;;17.60;99.90;;;;;;5033741;28;20442;-92
2021/06/23 00:20:52;;;;;;;7.10;4.03;;;17.50;99.90;;;;;;5037799;28;20465;-92
2021/06/23 00:23:19;;;;;;;4.07;3.60;;;17.50;99.90;;;;;;5037564;28;20518;-92
2021/06/23 00:25:45;;;;;;;3.40;3.13;;;17.50;99.90;;;;;;5037532;28;20817;-92
2021/06/23 00:28:13;;;;;;;3.87;3.50;;;17.50;99.90;;;;;;5037541;28;20477;-92
2021/06/23 00:30:40;;;;;;;6.10;3.10;;;17.50;99.90;;;;;;5037519;28;20458;-92
2021/06/23 00:33:09;;;;;;;4.10;3.33;;;17.50;99.90;;;;;;5037154;28;20482;-92
2021/06/23 00:35:37;;;;;;;3.87;3.60;;;17.50;99.90;;;;;;5037413;28;20830;-92
2021/06/23 00:38:04;;;;;;;3.73;3.50;;;17.50;99.90;;;;;;5037314;28;20837;-92
2021/06/23 00:40:31;;;;;;;4.10;3.70;;;17.60;99.90;;;;;;5037348;28;20455;-92
2021/06/23 00:42:58;;;;;;;3.60;3.40;;;17.60;99.90;;;;;;5037371;28;20447;-92
2021/06/23 00:45:27;;;;;;;3.87;3.10;;;17.60;99.90;;;;;;5037254;28;20454;-92
2021/06/23 00:47:54;;;;;;;3.63;3.33;;;17.60;99.90;;;;;;5036776;28;20482;-92
2021/06/23 00:50:21;;;;;;;3.33;3.13;;;17.60;99.90;;;;;;5037199;28;20473;-92
2021/06/23 00:52:48;;;;;;;4.07;3.77;;;17.60;99.90;;;;;;5037071;28;20485;-92
2021/06/23 00:55:21;;;;;;;3.97;3.73;;;17.60;99.90;;;;;;5037058;28;20952;-91
2021/06/23 00:57:49;;;;;;;4.20;3.67;;;17.60;99.90;;;;;;5037007;28;20458;-92
2021/06/23 01:00:18;;;;;;;3.90;3.70;;;17.60;99.90;;;;;;5037086;28;20434;-92
2021/06/23 01:02:47;;;;;;;4.40;4.00;;;17.60;99.90;;;;;;5036930;28;20453;-92
2021/06/23 01:05:15;;;;;;;4.30;4.00;;;17.60;99.90;;;;;;5036798;28;20461;-92
2021/06/23 01:07:43;;;;;;;4.23;3.83;;;17.60;99.90;;;;;;5036891;28;20474;-92
2021/06/23 01:10:11;;;;;;;5.60;5.10;;;17.60;99.90;;;;;;5036785;28;20450;-92
2021/06/23 01:12:46;;;;;;;5.07;4.57;;;17.50;99.90;;;;;;5036613;28;20873;-92
2021/06/23 01:15:14;;;;;;;5.07;4.60;;;17.50;99.90;;;;;;5036814;28;20430;-92
2021/06/23 01:17:41;;;;;;;5.00;4.60;;;17.50;99.90;;;;;;5036595;28;20469;-92
2021/06/23 01:20:11;;;;;;;5.17;4.67;;;17.40;99.90;;;;;;5036328;28;20430;-93
2021/06/23 01:22:41;;;;;;;12.07;5.23;;;17.50;99.90;;;;;;5036625;28;20542;-92
2021/06/23 01:25:12;;;;;;;5.00;4.60;;;17.50;99.90;;;;;;5036892;28;20419;-92
2021/06/23 01:27:39;;;;;;;4.93;4.53;;;17.40;99.90;;;;;;5036264;28;20478;-93
2021/06/23 01:30:08;;;;;;;5.07;4.57;;;17.40;99.90;;;;;;5036598;28;20446;-93
2021/06/23 01:32:35;;;;;;;5.20;4.70;;;17.40;99.90;;;;;;5036266;28;20478;-93
2021/06/23 01:35:02;;;;;;;6.37;4.77;;;17.40;99.90;;;;;;5036640;28;20453;-92
2021/06/23 01:37:30;;;;;;;5.10;4.60;;;17.40;99.90;;;;;;5036097;28;20465;-92
2021/06/23 01:40:00;;;;;;;5.17;4.77;;;17.40;99.90;;;;;;5036347;28;20810;-93
2021/06/23 01:42:26;;;;;;;5.87;5.33;;;17.40;99.90;;;;;;5036026;28;20438;-92
2021/06/23 01:44:53;;;;;;;6.00;4.93;;;17.40;99.90;;;;;;5036317;28;20454;-92
2021/06/23 01:47:20;;;;;;;5.70;5.20;;;17.40;99.90;;;;;;5035699;28;20819;-93
2021/06/23 01:49:47;;;;;;;5.90;5.40;;;17.30;99.90;;;;;;5036272;28;20454;-92
2021/06/23 01:52:14;;;;;;;5.70;5.20;;;17.30;99.90;;;;;;5035976;28;20443;-93
2021/06/23 01:54:42;;;;;;;5.27;4.83;;;17.40;99.90;;;;;;5036036;28;20443;-93
2021/06/23 01:57:11;;;;;;;5.13;4.73;;;17.30;99.90;;;;;;5035832;28;20458;-93
2021/06/23 01:59:39;;;;;;;6.20;5.50;;;17.30;99.90;;;;;;5035904;28;20462;-93
2021/06/23 02:02:12;;;;;;;5.77;5.17;;;17.30;99.90;;;;;;5035543;28;20439;-93
2021/06/23 02:04:50;;;;;;;5.50;5.00;;;17.30;99.90;;;;;;5036082;28;20462;-93
2021/06/23 02:07:31;;;;;;;5.53;4.40;;;17.20;99.90;;;;;;5035790;28;20466;-93
2021/06/23 02:10:25;;;;;;;6.63;4.30;;;17.20;99.90;;;;;;5035840;28;20407;-92
2021/06/23 02:13:45;;;;;;;5.07;3.87;;;17.20;99.90;;;;;;5035423;28;20468;-93
2021/06/23 02:16:13;;;;;;;5.93;3.50;;;17.10;99.90;;;;;;5035300;28;20431;-92
2021/06/23 02:18:41;;;;;;;3.30;3.00;;;17.10;99.90;;;;;;5035286;28;20431;-93
2021/06/23 02:21:08;;;;;;;2.60;2.50;;;17.10;99.90;;;;;;5035605;28;20447;-93
2021/06/23 02:23:37;;;;;;;2.90;2.73;;;17.10;99.90;;;;;;5035173;28;20438;-93
2021/06/23 02:26:05;;;;;;;3.00;2.80;;;17.00;99.90;;;;;;5035288;28;20450;-92
2021/06/23 02:28:32;;;;;;;4.03;3.33;;;17.00;99.90;;;;;;5035583;28;20867;-92
2021/06/23 02:31:00;;;;;;;3.60;3.40;;;17.00;99.90;;;;;;5035018;28;20458;-93
2021/06/23 02:33:28;;;;;;;3.10;2.90;;;17.00;99.90;;;;;;5035115;28;20848;-91
2021/06/23 02:35:56;;;;;;;3.97;3.57;;;17.00;99.90;;;;;;5034975;28;20968;-92
2021/06/23 02:38:24;;;;;;;3.80;3.60;;;17.10;99.90;;;;;;5035145;28;20443;-91
2021/06/23 02:40:51;;;;;;;4.50;4.00;;;17.00;99.90;;;;;;5034649;28;20451;-92
2021/06/23 02:43:19;;;;;;;4.00;3.70;;;17.00;99.90;;;;;;5034351;28;20435;-91
2021/06/23 02:45:46;;;;;;;3.70;3.40;;;17.00;99.90;;;;;;5035440;28;20953;-91
2021/06/23 02:48:14;;;;;;;3.83;3.23;;;17.00;99.90;;;;;;5034355;28;20486;-91
2021/06/23 02:50:47;;;;;;;2.80;2.60;;;17.00;99.90;;;;;;5034537;28;20447;-92
2021/06/23 02:53:14;;;;;;;3.30;3.10;;;17.00;99.90;;;;;;5034770;28;20466;-93
2021/06/23 02:55:42;;;;;;;3.67;3.37;;;17.10;99.90;;;;;;5034581;28;20813;-93
2021/06/23 02:58:10;;;;;;;3.83;2.50;;;17.00;99.90;;;;;;5034305;28;20455;-92
2021/06/23 03:00:37;;;;;;;3.47;3.17;;;17.00;99.90;;;;;;5034772;28;20443;-93
2021/06/23 03:03:04;;;;;;;3.57;3.27;;;17.00;99.90;;;;;;5034876;28;20810;-92
2021/06/23 03:05:32;;;;;;;3.03;2.77;;;16.90;99.90;;;;;;5034557;28;20434;-92
2021/06/23 03:07:59;;;;;;;2.73;2.60;;;16.90;99.90;;;;;;5034312;28;20451;-92
2021/06/23 03:10:26;;;;;;;2.67;2.47;;;16.90;99.90;;;;;;5034570;28;20450;-92
2021/06/23 03:12:53;;;;;;;2.97;2.77;;;16.90;99.90;;;;;;5034334;28;20462;-92
2021/06/23 03:15:20;;;;;;;2.70;2.53;;;16.90;99.90;;;;;;5034484;28;20457;-92
2021/06/23 03:17:46;;;;;;;2.53;2.33;;;16.90;99.90;;;;;;5034410;28;20989;-92
2021/06/23 03:20:14;;;;;;;2.80;2.60;;;16.90;99.90;;;;;;5034475;28;20461;-91
2021/06/23 03:22:43;;;;;;;2.73;2.53;;;16.90;99.90;;;;;;5034048;28;20446;-91
2021/06/23 03:25:10;;;;;;;2.60;2.40;;;16.90;99.90;;;;;;5034303;28;20454;-91
2021/06/23 03:27:37;;;;;;;2.50;2.40;;;16.90;99.90;;;;;;5034168;28;20467;-91
2021/06/23 03:30:05;;;;;;;2.27;2.17;;;16.90;99.90;;;;;;5034035;28;20454;-91
2021/06/23 03:32:32;;;;;;;2.30;2.20;;;16.90;99.90;;;;;;5034179;28;20438;-92
2021/06/23 03:34:59;;;;;;;2.90;2.70;;;17.00;99.90;;;;;;5034176;28;20486;-91
2021/06/23 03:37:25;;;;;;;3.40;2.30;;;17.00;99.90;;;;;;5034189;28;20467;-91
2021/06/23 03:39:53;;;;;;;2.97;2.77;;;17.00;99.90;;;;;;5034006;28;20450;-91
2021/06/23 03:42:21;;;;;;;2.43;2.23;;;16.90;99.90;;;;;;5034124;28;20450;-92
2021/06/23 03:44:48;;;;;;;1.80;1.70;;;17.00;99.90;;;;;;5033854;28;20453;-91
2021/06/23 03:47:15;;;;;;;2.63;2.37;;;17.00;99.90;;;;;;5033731;28;20470;-91
2021/06/23 03:49:42;;;;;;;2.20;2.10;;;17.00;99.90;;;;;;5034302;28;20462;-91
2021/06/23 03:52:08;;;;;;;1.83;1.73;;;17.00;99.90;;;;;;5033669;28;20811;-91
2021/06/23 03:54:35;;;;;;;2.50;2.40;;;17.00;99.90;;;;;;5035864;28;20478;-91
2021/06/23 03:57:04;;;;;;;3.13;2.73;;;17.00;99.90;;;;;;5037850;28;20471;-91
2021/06/23 03:59:31;;;;;;;2.50;2.30;;;17.10;99.90;;;;;;5037690;28;20447;-91
2021/06/23 04:01:57;;;;;;;1.87;1.70;;;17.10;99.90;;;;;;5037637;28;20447;-91
2021/06/23 04:04:24;;;;;;;2.17;2.07;;;17.10;99.90;;;;;;5037711;28;20460;-91
2021/06/23 04:06:51;;;;;;;2.07;1.97;;;17.10;99.90;;;;;;5037641;28;20459;-91
2021/06/23 04:09:18;;;;;;;3.70;2.30;;;17.20;99.90;;;;;;5037735;28;20875;-91
2021/06/23 04:11:44;;;;;;;2.70;2.60;;;17.20;99.90;;;;;;5037555;28;20441;-91
2021/06/23 04:14:13;;;;;;;2.57;2.37;;;17.20;99.90;;;;;;5037729;28;20989;-91
2021/06/23 04:16:39;;;;;;;2.27;2.10;;;17.20;99.90;;;;;;5037783;28;20466;-91
2021/06/23 04:19:06;;;;;;;3.50;2.07;;;17.20;99.90;;;;;;5037592;28;20451;-91
2021/06/23 04:21:33;;;;;;;2.00;1.90;;;17.30;99.90;;;;;;5037484;28;20450;-91
2021/06/23 04:24:00;;;;;;;2.10;2.00;;;17.30;99.90;;;;;;5037504;28;20435;-91
2021/06/23 04:26:26;;;;;;;2.00;1.90;;;17.30;99.90;;;;;;5037413;28;20818;-91
2021/06/23 04:28:53;;;;;;;1.70;1.60;;;17.30;99.90;;;;;;5037062;28;20431;-91
2021/06/23 04:31:21;;;;;;;2.00;1.80;;;17.30;99.90;;;;;;5037192;28;20883;-91
2021/06/23 04:33:48;;;;;;;1.73;1.63;;;17.30;99.90;;;;;;5036906;28;20996;-91
2021/06/23 04:36:15;;;;;;;2.20;1.93;;;17.30;99.90;;;;;;5037013;28;20444;-91
2021/06/23 04:38:41;;;;;;;1.70;1.60;;;17.30;99.90;;;;;;5037367;28;20446;-91
2021/06/23 04:41:08;;;;;;;2.40;2.20;;;17.20;99.90;;;;;;5037261;28;20430;-91
2021/06/23 04:43:35;;;;;;;1.67;1.57;;;17.20;99.90;;;;;;5037230;28;20453;-91
2021/06/23 04:46:02;;;;;;;1.73;1.63;;;17.30;99.90;;;;;;5037110;28;20453;-91
2021/06/23 04:48:32;;;;;;;1.53;1.43;;;17.40;99.90;;;;;;5036658;28;20527;-91
2021/06/23 04:50:59;;;;;;;1.77;1.67;;;17.50;99.90;;;;;;5036775;28;20435;-91
2021/06/23 04:53:26;;;;;;;4.20;1.77;;;17.60;99.90;;;;;;5036779;28;20508;-91
2021/06/23 04:55:54;;;;;;;1.80;1.70;;;17.60;99.90;;;;;;5036873;28;20933;-90
2021/06/23 04:58:21;;;;;;;1.10;1.00;;;17.70;99.90;;;;;;5036563;28;20438;-91
2021/06/23 05:00:48;;;;;;;1.40;1.30;;;17.70;99.90;;;;;;5036510;28;20443;-91
2021/06/23 05:03:15;;;;;;;1.10;1.00;;;17.70;99.90;;;;;;5036542;28;20450;-90
2021/06/23 05:05:43;;;;;;;1.93;1.00;;;17.80;99.90;;;;;;5036275;28;20454;-90
2021/06/23 05:08:10;;;;;;;1.93;1.40;;;17.80;99.90;;;;;;5036618;28;20489;-91
2021/06/23 05:10:37;;;;;;;1.37;1.37;;;17.80;99.90;;;;;;5036390;28;20442;-90
2021/06/23 05:13:04;;;;;;;1.20;1.20;;;17.80;99.90;;;;;;5036389;28;20918;-91
2021/06/23 05:15:31;;;;;;;1.40;1.40;;;17.80;99.90;;;;;;5036244;28;20485;-91
2021/06/23 05:17:58;;;;;;;1.23;1.13;;;17.80;99.90;;;;;;5036536;28;20471;-90
2021/06/23 05:20:25;;;;;;;1.67;1.20;;;17.80;99.90;;;;;;5037075;28;20462;-90
2021/06/23 05:22:53;;;;;;;1.20;1.20;;;17.80;99.90;;;;;;5036161;28;20451;-90
2021/06/23 05:25:20;;;;;;;1.17;1.10;;;17.90;99.90;;;;;;5035905;28;20454;-90
2021/06/23 05:27:47;;;;;;;1.50;1.40;;;17.90;99.90;;;;;;5035912;28;21036;-90
2021/06/23 05:30:15;;;;;;;1.50;1.40;;;17.90;99.90;;;;;;5035922;28;20435;-90
2021/06/23 05:32:42;;;;;;;1.63;1.27;;;18.00;99.90;;;;;;5036109;28;20431;-90
2021/06/23 05:35:10;;;;;;;1.43;1.27;;;18.10;99.90;;;;;;5035826;28;20475;-90
2021/06/23 05:37:36;;;;;;;2.80;1.63;;;18.20;99.90;;;;;;5035663;28;20474;-90
2021/06/23 05:40:06;;;;;;;1.63;1.27;;;18.30;99.90;;;;;;5035944;28;20474;-89
2021/06/23 05:42:33;;;;;;;1.53;1.13;;;18.40;99.90;;;;;;5035018;28;20453;-90
2021/06/23 05:45:00;;;;;;;1.63;1.43;;;18.40;99.90;;;;;;5035786;28;20449;-89
2021/06/23 05:47:27;;;;;;;2.83;1.77;;;18.50;99.90;;;;;;5035384;28;20489;-89
2021/06/23 05:49:53;;;;;;;1.70;1.70;;;18.60;99.90;;;;;;5035696;28;20423;-89
2021/06/23 05:52:20;;;;;;;2.10;2.00;;;18.70;99.90;;;;;;5035539;28;20454;-89
2021/06/23 05:54:47;;;;;;;1.70;1.60;;;18.80;99.90;;;;;;5035501;28;20485;-89
2021/06/23 05:57:15;;;;;;;2.10;1.90;;;18.90;99.90;;;;;;5035733;28;20837;-89
2021/06/23 05:59:42;;;;;;;1.90;1.80;;;19.00;99.90;;;;;;5035223;28;20434;-89
2021/06/23 06:02:08;;;;;;;2.40;2.30;;;19.00;99.90;;;;;;5035465;28;20435;-89
2021/06/23 06:04:35;;;;;;;2.40;1.87;;;19.10;99.90;;;;;;5035219;28;20439;-89
2021/06/23 06:07:02;;;;;;;1.67;1.57;;;19.30;99.90;;;;;;5035347;28;20485;-89
2021/06/23 06:09:29;;;;;;;2.10;2.00;;;19.30;99.90;;;;;;5035181;28;20443;-88
2021/06/23 06:11:56;;;;;;;2.80;2.33;;;19.60;99.90;;;;;;5035195;28;20454;-88
2021/06/23 06:14:24;;;;;;;2.00;1.90;;;19.90;99.90;;;;;;5034667;28;20479;-88
2021/06/23 06:16:50;;;;;;;1.93;1.83;;;20.10;99.90;;;;;;5033775;28;20467;-88
2021/06/23 06:19:17;;;;;;;2.17;2.07;;;20.20;99.90;;;;;;5034544;28;20454;-87
2021/06/23 06:21:44;;;;;;;1.93;1.83;;;20.40;99.90;;;;;;5034501;28;20450;-87
2021/06/23 06:24:11;;;;;;;2.13;2.03;;;20.50;99.90;;;;;;5034511;28;21035;-87
2021/06/23 06:26:37;;;;;;;3.70;3.40;;;20.60;99.90;;;;;;5034539;28;20872;-87
2021/06/23 06:29:04;;;;;;;2.30;2.20;;;20.70;99.90;;;;;;5034447;28;20788;-89
2021/06/23 06:31:33;;;;;;;1.90;1.80;;;21.00;99.90;;;;;;5034889;28;20442;-89
2021/06/23 06:33:59;;;;;;;2.30;2.10;;;21.20;99.90;;;;;;5034783;28;20493;-88
2021/06/23 06:36:26;;;;;;;2.87;2.77;;;21.50;99.90;;;;;;5034761;28;20466;-88
2021/06/23 06:38:53;;;;;;;2.80;2.60;;;21.60;99.90;;;;;;5034702;28;20203;-88
2021/06/23 06:41:20;;;;;;;2.90;2.70;;;21.70;99.90;;;;;;5034367;28;20437;-89
2021/06/23 06:43:46;;;;;;;2.93;2.73;;;21.80;99.90;;;;;;5034631;28;20207;-88
2021/06/23 06:46:13;;;;;;;3.03;2.47;;;21.90;99.90;;;;;;5034546;28;20203;-89
2021/06/23 06:48:41;;;;;;;2.37;2.20;;;21.90;99.90;;;;;;5034250;28;20239;-88
2021/06/23 06:51:08;;;;;;;2.50;2.30;;;22.00;99.90;;;;;;5034450;28;20586;-88
2021/06/23 06:53:35;;;;;;;2.90;1.87;;;21.80;99.90;;;;;;5034978;28;20806;-88
2021/06/23 06:56:02;;;;;;;2.57;2.47;;;21.90;99.90;;;;;;5033964;28;20219;-88
2021/06/23 06:58:28;;;;;;;2.80;2.70;;;21.80;99.90;;;;;;5034264;28;20963;-88
2021/06/23 07:00:55;;;;;;;2.10;2.00;;;21.90;99.90;;;;;;5034162;28;20437;-87
2021/06/23 07:03:22;;;;;;;2.70;2.60;;;22.00;99.90;;;;;;5034134;28;20964;-87
2021/06/23 07:05:50;;;;;;;2.70;2.50;;;22.10;99.90;;;;;;5034028;28;20454;-87
2021/06/23 07:08:17;;;;;;;2.53;2.43;;;22.10;99.90;;;;;;5033967;28;20473;-88
2021/06/23 07:10:44;;;;;;;2.63;2.43;;;22.00;99.90;;;;;;5033908;28;20955;-87
2021/06/23 07:13:10;;;;;;;2.33;2.13;;;22.10;99.90;;;;;;5034287;28;20441;-87
2021/06/23 07:15:37;;;;;;;2.33;2.07;;;22.20;99.90;;;;;;5033920;28;20486;-87
2021/06/23 07:18:04;;;;;;;2.20;2.10;;;22.50;99.90;;;;;;5033598;28;20827;-87
2021/06/23 07:20:32;;;;;;;2.40;2.30;;;22.80;99.90;;;;;;5033664;28;20438;-87
2021/06/23 07:23:00;;;;;;;1.80;1.70;;;23.00;99.90;;;;;;5033653;28;20195;-87
2021/06/23 07:25:27;;;;;;;1.90;1.90;;;23.10;99.90;;;;;;5033478;28;20203;-87
2021/06/23 07:27:54;;;;;;;2.13;2.03;;;23.20;99.90;;;;;;5033487;28;20566;-87
2021/06/23 07:30:22;;;;;;;1.90;1.70;;;23.30;99.90;;;;;;5033783;28;20567;-87
2021/06/23 07:32:52;;;;;;;1.80;1.70;;;23.70;99.90;;;;;;5033489;28;20781;-87
2021/06/23 07:38:07;;;;;;;2.33;1.45;;;24.60;99.90;;;;;;5033645;28;20689;-87
2021/06/23 07:40:50;;;;;;;1.63;1.55;;;25.00;99.90;;;;;;5034275;28;20334;-87
2021/06/23 07:43:17;;;;;;;2.00;1.90;;;25.00;99.90;;;;;;5033280;28;20187;-83
2021/06/23 07:45:46;;;;;;;1.77;1.67;;;24.60;99.90;;;;;;5033204;28;20292;-84
2021/06/23 07:48:13;;;;;;;1.77;1.67;;;24.20;99.90;;;;;;5033094;28;20274;-84
2021/06/23 07:50:46;;;;;;;2.28;2.17;;;23.70;99.90;;;;;;5033530;28;20285;-85
2021/06/23 07:53:20;;;;;;;2.92;2.72;;;23.30;99.90;;;;;;5033150;28;20194;-85
2021/06/23 07:55:50;;;;;;;2.00;1.90;;;22.90;99.90;;;;;;5033473;28;20187;-85
2021/06/23 08:09:12;;;;;;;1.77;1.67;;;22.50;99.90;;;;;;4989844;28;20434;-84
2021/06/23 08:11:41;;;;;;;6.93;1.75;;;23.00;99.90;;;;;;5033146;28;20199;-85
2021/06/23 08:14:08;;;;;;;4.00;1.98;;;23.30;99.90;;;;;;5032822;28;20302;-85
2021/06/23 08:16:37;;;;;;;1.63;1.48;;;23.80;99.90;;;;;;5033112;28;20220;-84
2021/06/23 08:19:04;;;;;;;1.33;1.33;;;24.70;99.90;;;;;;5033743;28;20562;-84
2021/06/23 08:21:31;;;;;;;1.67;1.65;;;25.60;99.90;;;;;;5033019;28;20219;-84
2021/06/23 08:23:58;;;;;;;1.52;1.52;;;26.50;99.90;;;;;;5033024;28;20218;-85
2021/06/23 08:26:26;;;;;;;1.42;1.40;;;26.90;99.90;;;;;;5032937;28;20240;-84
2021/06/23 08:28:53;;;;;;;1.73;1.30;;;27.20;99.90;;;;;;5032706;28;20208;-84
2021/06/23 08:31:19;;;;;;;1.08;0.98;;;27.30;99.90;;;;;;5032925;28;20592;-84
2021/06/23 08:33:46;;;;;;;1.02;1.02;;;27.20;99.90;;;;;;5032926;28;20199;-84
2021/06/23 08:36:13;;;;;;;1.08;0.95;;;27.30;99.90;;;;;;5032812;28;20305;-85
2021/06/23 08:38:40;;;;;;;0.73;0.73;;;27.10;99.90;;;;;;5032815;28;20209;-84
2021/06/23 08:41:07;;;;;;;1.10;1.00;;;27.30;99.90;;;;;;5035286;28;20196;-84
2021/06/23 08:43:35;;;;;;;1.17;0.90;;;27.50;99.60;;;;;;5036210;28;20210;-84
2021/06/23 08:46:03;;;;;;;0.77;0.77;;;27.70;96.90;;;;;;5036025;28;20215;-83
2021/06/23 08:48:30;;;;;;;0.85;0.85;;;27.50;94.80;;;;;;5035994;28;20246;-84
2021/06/23 08:51:01;;;;;;;0.70;0.70;;;27.20;94.50;;;;;;5036225;28;20204;-84
2021/06/23 08:53:28;;;;;;;1.30;0.73;;;27.00;94.50;;;;;;5036588;28;20200;-84
2021/06/23 08:55:55;;;;;;;1.05;1.05;;;26.90;93.60;;;;;;5036011;28;20216;-84
2021/06/23 08:58:22;;;;;;;1.77;1.10;;;26.90;94.70;;;;;;5036227;28;20199;-84
2021/06/23 09:00:52;;;;;;;1.15;1.10;;;26.70;95.80;;;;;;5036144;28;20202;-84
2021/06/23 09:03:19;;;;;;;1.88;1.15;;;26.60;96.50;;;;;;5036581;28;20204;-84
2021/06/23 09:05:48;;;;;;;1.20;1.20;;;26.40;96.80;;;;;;5035802;28;20230;-84
2021/06/23 09:08:28;;;;;;;1.40;0.95;;;26.10;95.70;;;;;;5035920;28;20646;-84
2021/06/23 09:10:54;;;;;;;1.08;0.95;;;25.70;97.40;;;;;;5036051;28;20194;-84
2021/06/23 09:13:21;;;;;;;1.10;1.10;;;25.30;96.60;;;;;;5035626;28;20202;-84
2021/06/23 09:15:52;;;;;;;1.20;0.90;;;25.00;97.70;;;;;;5035842;28;20208;-84
2021/06/23 09:18:21;;;;;;;0.90;0.90;;;24.90;96.60;;;;;;5035805;28;20230;-84
2021/06/23 09:20:50;;;;;;;0.80;0.80;;;24.80;97.10;;;;;;5035857;28;20609;-84
2021/06/23 09:23:17;;;;;;;1.15;0.80;;;24.70;96.70;;;;;;5035695;28;20205;-84
2021/06/23 09:25:45;;;;;;;0.90;0.90;;;24.70;96.10;;;;;;5035352;28;20222;-84
2021/06/23 09:28:17;;;;;;;1.45;1.35;;;24.60;97.80;;;;;;5035324;28;20725;-84
2021/06/23 09:30:46;;;;;;;1.20;1.20;;;24.70;98.00;;;;;;5035351;28;20242;-84
2021/06/23 09:33:19;;;;;;;1.13;1.13;;;25.00;98.60;;;;;;5035542;28;20203;-85
2021/06/23 09:35:48;;;;;;;1.50;1.45;;;25.10;97.80;;;;;;5035613;28;20278;-84
2021/06/23 09:38:45;;;;;;;2.05;1.95;;;25.00;99.20;;;;;;5035372;28;20227;-84
2021/06/23 09:41:21;;;;;;;3.00;1.90;;;25.20;99.90;;;;;;5035070;28;20242;-84
2021/06/23 09:43:50;;;;;;;2.35;2.15;;;25.30;99.90;;;;;;5035524;28;20202;-84
2021/06/23 09:46:23;;;;;;;1.95;1.85;;;25.50;99.90;;;;;;5035275;28;20254;-84
2021/06/23 09:49:02;;;;;;;3.30;1.90;;;25.60;99.90;;;;;;5034942;28;20318;-84
2021/06/23 09:51:29;;;;;;;1.35;1.35;;;25.50;99.90;;;;;;5034166;28;20187;-84
2021/06/23 09:54:02;;;;;;;1.77;1.67;;;25.20;99.90;;;;;;5035194;28;20214;-84
2021/06/23 09:56:35;;;;;;;1.65;1.63;;;24.90;99.90;;;;;;5035099;28;20697;-84
2021/06/23 09:59:03;;;;;;;1.67;1.58;;;24.60;99.90;;;;;;5034868;28;20287;-84
2021/06/23 10:01:31;;;;;;;1.60;1.50;;;24.50;99.90;;;;;;5034788;28;20204;-84
2021/06/23 10:04:01;;;;;;;1.63;1.52;;;24.50;99.90;;;;;;5034781;28;20199;-84
2021/06/23 10:06:29;;;;;;;1.50;1.50;;;24.70;99.90;;;;;;5034830;28;20227;-84
2021/06/23 10:09:20;;;;;;;1.35;1.30;;;25.20;99.90;;;;;;5034622;28;20199;-84
2021/06/23 10:11:48;;;;;;;1.23;1.13;;;25.60;99.90;;;;;;5034870;28;20241;-83
2021/06/23 10:14:15;;;;;;;1.10;1.10;;;25.80;99.90;;;;;;5034753;28;20203;-84
2021/06/23 10:16:43;;;;;;;1.63;1.52;;;26.00;99.90;;;;;;5035096;28;20219;-83
2021/06/23 10:19:11;;;;;;;1.83;1.73;;;26.10;99.90;;;;;;5034653;28;20204;-84
2021/06/23 10:21:39;;;;;;;1.70;1.60;;;26.10;99.90;;;;;;5034583;28;20211;-84
2021/06/23 10:24:10;;;;;;;1.63;1.52;;;25.80;99.90;;;;;;5034259;28;20673;-84
2021/06/23 10:26:40;;;;;;;1.90;1.80;;;25.50;99.90;;;;;;5034522;28;20223;-84
2021/06/23 10:29:10;;;;;;;1.60;1.48;;;25.20;99.90;;;;;;5034825;28;20518;-84
2021/06/23 10:31:37;;;;;;;1.80;1.70;;;25.10;99.90;;;;;;5034255;28;20196;-84
2021/06/23 10:34:04;;;;;;;1.40;1.30;;;25.30;99.90;;;;;;5034490;28;20207;-84
2021/06/23 10:36:33;;;;;;;1.45;1.45;;;25.60;99.90;;;;;;5034186;28;20231;-83
2021/06/23 10:39:02;;;;;;;1.10;1.10;;;26.00;99.90;;;;;;5034307;28;20200;-83
2021/06/23 10:41:29;;;;;;;1.48;1.27;;;26.00;99.90;;;;;;5034245;28;20203;-83
2021/06/23 10:44:18;;;;;;;0.98;0.98;;;25.80;99.90;;;;;;5034158;28;20207;-83
2021/06/23 10:46:46;;;;;;;1.50;1.40;;;25.40;99.90;;;;;;5033729;28;20234;-81
2021/06/23 10:49:18;;;;;;;1.30;1.30;;;25.30;99.90;;;;;;5033687;28;20262;-81
2021/06/23 10:51:48;;;;;;;1.83;1.60;;;25.20;99.90;;;;;;5034333;28;20199;-81
2021/06/23 10:54:36;;;;;;;1.13;1.13;;;25.00;99.90;;;;;;5034832;28;20192;-81
2021/06/23 10:57:23;;;;;;;1.02;1.02;;;24.80;99.90;;;;;;5028153;28;20302;-81
2021/06/23 10:59:51;;;;;;;0.80;0.80;;;24.70;99.90;;;;;;5034024;28;20242;-82
2021/06/23 11:02:18;;;;;;;0.90;0.90;;;24.90;99.90;;;;;;5033497;28;20606;-81
2021/06/23 11:05:14;;;;;;;1.30;0.80;;;24.90;99.70;;;;;;5033538;28;20673;-81
2021/06/23 11:07:44;;;;;;;0.70;0.70;;;25.10;99.30;;;;;;5033434;28;20701;-81
2021/06/23 11:10:30;;;;;;;0.85;0.85;;;25.50;97.90;;;;;;5034871;28;20549;-81
2021/06/23 11:13:00;;;;;;;1.25;0.80;;;25.80;98.40;;;;;;5033770;28;20222;-80
2021/06/23 11:15:37;;;;;;;1.00;0.95;;;25.80;97.70;;;;;;5033730;28;20210;-81
2021/06/23 11:18:32;;;;;;;0.60;0.60;;;25.70;97.20;;;;;;5033409;28;20211;-81
2021/06/23 11:21:00;;;;;;;0.60;0.60;;;25.80;95.40;;;;;;5033347;28;20191;-80
2021/06/23 11:24:00;;;;;;;0.70;0.70;;;25.80;95.30;;;;;;5033406;28;20207;-80
2021/06/23 11:27:00;;;;;;;0.60;0.60;;;25.80;95.40;;;;;;5033005;28;20254;-81
2021/06/23 11:29:40;;;;;;;0.50;0.50;;;25.60;93.30;;;;;;5033199;28;20657;-81
2021/06/23 11:32:09;;;;;;;0.50;0.50;;;25.70;93.90;;;;;;5033197;28;20199;-81
2021/06/23 11:34:57;;;;;;;1.55;0.60;;;25.60;93.00;;;;;;5033189;28;20199;-81
2021/06/23 11:37:37;;;;;;;0.40;0.40;;;25.50;92.00;;;;;;5033477;28;20254;-83
2021/06/23 11:40:20;;;;;;;0.40;0.40;;;25.60;92.40;;;;;;5033523;28;20222;-85
2021/06/23 11:42:48;;;;;;;1.13;0.50;;;25.60;90.50;;;;;;5033395;28;20210;-83
2021/06/23 11:45:18;;;;;;;0.60;0.50;;;25.60;88.40;;;;;;5033405;28;20229;-85
2021/06/23 11:47:45;;;;;;;0.50;0.50;;;25.40;88.50;;;;;;5033063;28;20235;-83
2021/06/23 11:50:12;;;;;;;0.50;0.50;;;25.30;87.50;;;;;;5033329;28;20210;-84
2021/06/23 11:52:40;;;;;;;0.60;0.60;;;25.20;89.50;;;;;;5033321;28;20571;-83
2021/06/23 11:55:09;;;;;;;0.50;0.50;;;25.10;88.00;;;;;;5032954;28;20253;-83
2021/06/23 11:57:38;;;;;;;0.40;0.40;;;25.10;88.50;;;;;;5033974;28;20230;-83
2021/06/23 12:00:07;;;;;;;0.50;0.50;;;25.00;87.60;;;;;;5032852;28;20200;-83
2021/06/23 12:02:34;;;;;;;0.50;0.50;;;25.00;85.80;;;;;;5033189;28;20203;-83
2021/06/23 12:05:00;;;;;;;0.50;0.50;;;25.00;85.20;;;;;;5032975;28;20199;-82
2021/06/23 12:07:27;;;;;;;0.40;0.40;;;25.00;86.00;;;;;;5032755;28;20737;-83
2021/06/23 12:09:54;;;;;;;0.50;0.50;;;25.00;84.50;;;;;;5033187;28;20196;-82
2021/06/23 12:12:21;;;;;;;0.77;0.50;;;25.10;87.00;;;;;;5033162;28;20203;-83
2021/06/23 12:14:49;;;;;;;0.50;0.50;;;24.90;85.50;;;;;;5033867;28;20214;-83
2021/06/23 12:17:16;;;;;;;0.40;0.40;;;24.90;87.70;;;;;;5036712;28;20215;-83
2021/06/23 12:19:45;;;;;;;0.52;0.43;;;25.00;88.10;;;;;;5036718;28;20720;-84
2021/06/23 12:22:12;;;;;;;1.63;0.50;;;25.00;85.50;;;;;;5036558;28;20210;-83
2021/06/23 12:24:39;;;;;;;0.47;0.47;;;24.90;84.00;;;;;;5036622;28;20207;-82
2021/06/23 12:27:06;;;;;;;0.50;0.50;;;24.70;84.20;;;;;;5036639;28;20231;-83
2021/06/23 12:29:33;;;;;;;0.40;0.40;;;24.80;80.40;;;;;;5036776;28;20211;-83
2021/06/23 12:32:02;;;;;;;0.60;0.50;;;24.80;82.00;;;;;;5036699;28;20571;-83
2021/06/23 12:34:29;;;;;;;0.40;0.40;;;24.70;82.70;;;;;;5036679;28;20207;-83
2021/06/23 12:36:56;;;;;;;0.90;0.90;;;24.70;82.70;;;;;;5036331;28;20242;-83
2021/06/23 12:39:23;;;;;;;0.40;0.40;;;24.60;80.60;;;;;;5036602;28;20207;-83
2021/06/23 12:41:50;;;;;;;0.40;0.40;;;24.60;84.60;;;;;;5036353;28;20200;-83
2021/06/23 12:44:17;;;;;;;0.50;0.40;;;24.50;83.10;;;;;;5036441;28;20214;-82
2021/06/23 12:46:44;;;;;;;0.50;0.50;;;24.50;84.10;;;;;;5036299;28;20231;-83
2021/06/23 12:49:13;;;;;;;2.10;0.50;;;24.60;80.40;;;;;;5036060;28;20242;-83
2021/06/23 12:51:40;;;;;;;0.70;0.60;;;24.50;81.60;;;;;;5036270;28;20207;-83
2021/06/23 12:54:07;;;;;;;0.50;0.50;;;24.40;83.50;;;;;;5036338;28;20210;-83
2021/06/23 12:56:33;;;;;;;1.47;0.87;;;24.40;84.90;;;;;;5036196;28;20219;-83
2021/06/23 12:59:00;;;;;;;2.40;1.60;;;24.60;90.50;;;;;;5036274;28;20281;-83
2021/06/23 13:01:27;;;;;;;1.30;1.20;;;24.70;94.20;;;;;;5036150;28;20210;-83
2021/06/23 13:03:54;;;;;;;1.20;1.10;;;24.70;96.40;;;;;;5036198;28;20210;-83
2021/06/23 13:06:22;;;;;;;1.20;1.10;;;24.60;98.00;;;;;;5036471;28;20231;-80
2021/06/23 13:08:49;;;;;;;2.33;1.70;;;24.70;97.00;;;;;;5035956;28;20206;-80
2021/06/23 13:11:16;;;;;;;3.95;1.75;;;24.70;96.90;;;;;;5035750;28;20207;-80